Terminal Aerodrome Forecast
Issued by NWS Bismarck, ND

Home | Current Version | Previous Version | Text Only | Print | Product List | Glossary On
Versions: 1 2 3 4 5 6 7 8 9 10 11 12 13 14 15 16 17 18 19 20 21 22
000
FTUS43 KBIS 031125
TAFBIS
TAF
KBIS 031125Z 0312/0412 10005KT 4SM BR SKC
      TEMPO 0312/0314 2SM BR SCT006
     FM031500 14008KT P6SM SKC
     FM031800 17013KT P6SM SKC
     FM040300 14008KT P6SM SCT080=

USA.gov is the U.S. government's official web portal to all federal, state and local government web resources and services.